Estación Meteorológica Peña el Pijo (Robertgarden) [ 03/06/21 15:31:56 CET ]

Fecha Hora Presion(HPa) Temp (°C) Humedad % Rocio (°C) Viento ( m/s) Direccion Lluvia 1Hora(mm) Lluvia 24H(mm) LLuvia Total(mm)
2021-Feb-27 01:09:27 1014.700 0.9 88 -0.9 - N     89.61
2021-Feb-27 02:10:36 1014.300 0.2 89 -1.4 - N     89.61
2021-Feb-27 03:09:55 1013.800 0.2 89 -1.4 - N     89.61
2021-Feb-27 04:10:02 1013.500 1.8 89 0.1 - N     89.61
2021-Feb-27 05:09:59 1013.100 2.8 89 1.1 - N     89.61
2021-Feb-27 06:09:53 1012.800 3.3 87 1.3 - N     89.61
2021-Feb-27 07:09:14 1013.000 2.9 86 0.8 - N     89.61
2021-Feb-27 08:09:48 1013.100 1.6 88 -0.2 - N     89.61
2021-Feb-27 09:09:50 1013.200 13.1 55 4.2 - N     89.61
2021-Feb-27 10:09:02 1013.000 12.4 49 1.9 - N     89.61
2021-Feb-27 11:09:46 1012.500 14.8 43 2.3 - N     89.61
2021-Feb-27 12:10:02 1012.100 14.9 45 3.0 - N     89.61
2021-Feb-27 13:09:59 1011.400 16.6 42 3.6 - N     89.61
2021-Feb-27 14:09:19 1010.700 17.3 43 4.5 - N     89.61
2021-Feb-27 15:09:26 1010.400 18.1 43 5.2 - N     89.61
2021-Feb-27 16:09:56 1009.900 14.3 52 4.6 - N     89.61
2021-Feb-27 17:09:12 1010.000 12.8 57 4.4 - N     89.61
2021-Feb-27 18:09:24 1009.900 11.2 61 3.9 - N     89.61
2021-Feb-27 19:09:27 1010.100 8.8 66 2.8 - N     89.61
2021-Feb-27 20:09:19 1010.100 6.9 71 2.0 - N     89.61
2021-Feb-27 21:09:27 1010.000 5.3 77 1.6 - N     89.61
2021-Feb-27 22:09:36 1010.000 3.8 80 0.7 - N     89.61
2021-Feb-27 23:09:27 1010.300 2.8 83 0.2 - N     89.61

Temperatura Máxima:18°    Temperatura Mínima:
Presión Máxima:1014.700 Hpa    Presión Mínima:1009.900 Hpa


Volver